sensor_id;sensor_type;location;lat;lon;timestamp;P1;durP1;ratioP1;P2;durP2;ratioP2
71648;SDS011;59492;45.638;11.714;2023-02-01T00:01:37;24.20;;;20.40;;
71648;SDS011;59492;45.638;11.714;2023-02-01T00:04:02;24.60;;;20.20;;
71648;SDS011;59492;45.638;11.714;2023-02-01T00:06:28;24.90;;;21.00;;
71648;SDS011;59492;45.638;11.714;2023-02-01T00:08:54;23.20;;;20.60;;
71648;SDS011;59492;45.638;11.714;2023-02-01T00:11:20;25.80;;;20.90;;
71648;SDS011;59492;45.638;11.714;2023-02-01T00:13:46;25.80;;;22.10;;
71648;SDS011;59492;45.638;11.714;2023-02-01T00:16:13;23.50;;;20.20;;
71648;SDS011;59492;45.638;11.714;2023-02-01T00:18:45;24.50;;;20.70;;
71648;SDS011;59492;45.638;11.714;2023-02-01T00:21:17;25.80;;;22.40;;
71648;SDS011;59492;45.638;11.714;2023-02-01T00:23:46;25.20;;;21.70;;
71648;SDS011;59492;45.638;11.714;2023-02-01T00:29:02;23.90;;;20.40;;
71648;SDS011;59492;45.638;11.714;2023-02-01T00:31:29;25.70;;;21.00;;
71648;SDS011;59492;45.638;11.714;2023-02-01T00:33:58;25.30;;;20.80;;
71648;SDS011;59492;45.638;11.714;2023-02-01T00:36:24;25.10;;;21.00;;
71648;SDS011;59492;45.638;11.714;2023-02-01T00:38:53;26.20;;;21.40;;
71648;SDS011;59492;45.638;11.714;2023-02-01T00:41:19;27.60;;;21.30;;
71648;SDS011;59492;45.638;11.714;2023-02-01T00:43:49;24.30;;;20.20;;
71648;SDS011;59492;45.638;11.714;2023-02-01T00:46:16;26.80;;;21.50;;
71648;SDS011;59492;45.638;11.714;2023-02-01T00:48:44;24.30;;;20.60;;
71648;SDS011;59492;45.638;11.714;2023-02-01T00:51:10;23.90;;;20.10;;
71648;SDS011;59492;45.638;11.714;2023-02-01T00:53:38;27.50;;;21.00;;
71648;SDS011;59492;45.638;11.714;2023-02-01T00:56:04;26.80;;;21.40;;
71648;SDS011;59492;45.638;11.714;2023-02-01T00:58:38;25.60;;;19.60;;
71648;SDS011;59492;45.638;11.714;2023-02-01T01:01:08;23.40;;;19.90;;
71648;SDS011;59492;45.638;11.714;2023-02-01T01:03:42;20.70;;;18.30;;
71648;SDS011;59492;45.638;11.714;2023-02-01T01:06:10;22.20;;;18.60;;
71648;SDS011;59492;45.638;11.714;2023-02-01T01:08:38;23.80;;;19.40;;
71648;SDS011;59492;45.638;11.714;2023-02-01T01:11:06;22.40;;;18.90;;
71648;SDS011;59492;45.638;11.714;2023-02-01T01:13:42;24.40;;;19.40;;
71648;SDS011;59492;45.638;11.714;2023-02-01T01:16:09;22.60;;;19.80;;
71648;SDS011;59492;45.638;11.714;2023-02-01T01:18:36;22.30;;;19.20;;
71648;SDS011;59492;45.638;11.714;2023-02-01T01:21:03;23.30;;;19.70;;
71648;SDS011;59492;45.638;11.714;2023-02-01T01:23:30;23.20;;;19.70;;
71648;SDS011;59492;45.638;11.714;2023-02-01T01:25:56;22.70;;;20.00;;
71648;SDS011;59492;45.638;11.714;2023-02-01T01:28:22;24.60;;;19.70;;
71648;SDS011;59492;45.638;11.714;2023-02-01T01:30:47;22.60;;;19.80;;
71648;SDS011;59492;45.638;11.714;2023-02-01T01:33:15;23.00;;;20.30;;
71648;SDS011;59492;45.638;11.714;2023-02-01T01:35:41;23.50;;;19.90;;
71648;SDS011;59492;45.638;11.714;2023-02-01T01:38:06;23.80;;;19.20;;
71648;SDS011;59492;45.638;11.714;2023-02-01T01:40:37;23.40;;;20.70;;
71648;SDS011;59492;45.638;11.714;2023-02-01T01:43:02;23.60;;;19.50;;
71648;SDS011;59492;45.638;11.714;2023-02-01T01:45:30;25.60;;;19.90;;
71648;SDS011;59492;45.638;11.714;2023-02-01T01:47:58;26.80;;;20.20;;
71648;SDS011;59492;45.638;11.714;2023-02-01T01:50:54;22.40;;;19.70;;
71648;SDS011;59492;45.638;11.714;2023-02-01T01:53:26;23.90;;;19.90;;
71648;SDS011;59492;45.638;11.714;2023-02-01T01:55:56;22.30;;;19.70;;
71648;SDS011;59492;45.638;11.714;2023-02-01T01:58:31;24.80;;;20.50;;
71648;SDS011;59492;45.638;11.714;2023-02-01T02:01:01;25.40;;;19.90;;
71648;SDS011;59492;45.638;11.714;2023-02-01T02:03:39;21.70;;;18.80;;
71648;SDS011;59492;45.638;11.714;2023-02-01T02:06:12;21.60;;;19.30;;
71648;SDS011;59492;45.638;11.714;2023-02-01T02:08:44;23.00;;;19.50;;
71648;SDS011;59492;45.638;11.714;2023-02-01T02:11:10;23.80;;;19.70;;
71648;SDS011;59492;45.638;11.714;2023-02-01T02:13:43;22.10;;;19.70;;
71648;SDS011;59492;45.638;11.714;2023-02-01T02:16:21;22.70;;;18.80;;
71648;SDS011;59492;45.638;11.714;2023-02-01T02:27:50;22.20;;;18.90;;
71648;SDS011;59492;45.638;11.714;2023-02-01T02:30:40;22.40;;;18.40;;
71648;SDS011;59492;45.638;11.714;2023-02-01T02:35:53;23.20;;;18.80;;
71648;SDS011;59492;45.638;11.714;2023-02-01T02:44:05;24.00;;;18.80;;
71648;SDS011;59492;45.638;11.714;2023-02-01T02:46:57;22.20;;;18.90;;
71648;SDS011;59492;45.638;11.714;2023-02-01T02:49:49;22.50;;;18.50;;
71648;SDS011;59492;45.638;11.714;2023-02-01T02:52:51;21.50;;;18.20;;
71648;SDS011;59492;45.638;11.714;2023-02-01T02:55:43;22.30;;;18.80;;
71648;SDS011;59492;45.638;11.714;2023-02-01T02:58:10;21.10;;;18.70;;
71648;SDS011;59492;45.638;11.714;2023-02-01T03:01:04;23.30;;;18.70;;
71648;SDS011;59492;45.638;11.714;2023-02-01T03:03:49;20.70;;;18.40;;
71648;SDS011;59492;45.638;11.714;2023-02-01T03:06:36;21.60;;;18.80;;
71648;SDS011;59492;45.638;11.714;2023-02-01T03:09:04;21.90;;;18.70;;
71648;SDS011;59492;45.638;11.714;2023-02-01T03:11:35;21.30;;;18.10;;
71648;SDS011;59492;45.638;11.714;2023-02-01T03:14:41;20.90;;;18.60;;
71648;SDS011;59492;45.638;11.714;2023-02-01T03:17:10;22.40;;;18.70;;
71648;SDS011;59492;45.638;11.714;2023-02-01T03:19:43;21.30;;;17.90;;
71648;SDS011;59492;45.638;11.714;2023-02-01T03:22:15;22.50;;;18.90;;
71648;SDS011;59492;45.638;11.714;2023-02-01T03:24:52;22.30;;;18.00;;
71648;SDS011;59492;45.638;11.714;2023-02-01T03:29:56;22.60;;;19.10;;
71648;SDS011;59492;45.638;11.714;2023-02-01T03:32:27;22.00;;;19.20;;
71648;SDS011;59492;45.638;11.714;2023-02-01T03:34:53;22.30;;;17.20;;
71648;SDS011;59492;45.638;11.714;2023-02-01T03:37:23;20.20;;;16.70;;
71648;SDS011;59492;45.638;11.714;2023-02-01T03:42:42;20.70;;;17.20;;
71648;SDS011;59492;45.638;11.714;2023-02-01T03:45:11;19.40;;;16.90;;
71648;SDS011;59492;45.638;11.714;2023-02-01T03:47:42;18.60;;;16.40;;
71648;SDS011;59492;45.638;11.714;2023-02-01T03:50:18;22.10;;;17.60;;
71648;SDS011;59492;45.638;11.714;2023-02-01T03:53:06;22.00;;;18.50;;
71648;SDS011;59492;45.638;11.714;2023-02-01T03:55:35;20.80;;;18.50;;
71648;SDS011;59492;45.638;11.714;2023-02-01T03:58:12;20.40;;;17.30;;
71648;SDS011;59492;45.638;11.714;2023-02-01T04:00:40;20.40;;;18.00;;
71648;SDS011;59492;45.638;11.714;2023-02-01T04:03:10;23.10;;;18.60;;
71648;SDS011;59492;45.638;11.714;2023-02-01T04:05:36;19.60;;;17.10;;
71648;SDS011;59492;45.638;11.714;2023-02-01T04:08:04;18.70;;;16.70;;
71648;SDS011;59492;45.638;11.714;2023-02-01T04:10:30;23.50;;;18.30;;
71648;SDS011;59492;45.638;11.714;2023-02-01T04:12:56;19.00;;;16.90;;
71648;SDS011;59492;45.638;11.714;2023-02-01T04:15:22;19.20;;;16.80;;
71648;SDS011;59492;45.638;11.714;2023-02-01T04:17:48;20.60;;;17.80;;
71648;SDS011;59492;45.638;11.714;2023-02-01T04:20:14;20.40;;;17.20;;
71648;SDS011;59492;45.638;11.714;2023-02-01T04:22:39;18.70;;;16.80;;
71648;SDS011;59492;45.638;11.714;2023-02-01T04:25:08;21.20;;;17.50;;
71648;SDS011;59492;45.638;11.714;2023-02-01T04:27:34;21.40;;;17.10;;
71648;SDS011;59492;45.638;11.714;2023-02-01T04:30:00;21.60;;;18.10;;
71648;SDS011;59492;45.638;11.714;2023-02-01T04:32:26;21.40;;;18.00;;
71648;SDS011;59492;45.638;11.714;2023-02-01T04:34:52;20.70;;;17.10;;
71648;SDS011;59492;45.638;11.714;2023-02-01T04:37:18;19.90;;;17.10;;
71648;SDS011;59492;45.638;11.714;2023-02-01T04:39:43;19.60;;;16.90;;
71648;SDS011;59492;45.638;11.714;2023-02-01T04:42:09;19.90;;;17.60;;
71648;SDS011;59492;45.638;11.714;2023-02-01T04:44:35;19.50;;;17.30;;
71648;SDS011;59492;45.638;11.714;2023-02-01T04:47:06;23.10;;;19.00;;
71648;SDS011;59492;45.638;11.714;2023-02-01T04:49:32;19.40;;;17.10;;
71648;SDS011;59492;45.638;11.714;2023-02-01T04:51:59;19.90;;;17.60;;
71648;SDS011;59492;45.638;11.714;2023-02-01T04:54:25;18.80;;;16.80;;
71648;SDS011;59492;45.638;11.714;2023-02-01T04:56:51;19.80;;;16.90;;
71648;SDS011;59492;45.638;11.714;2023-02-01T04:59:16;20.60;;;17.70;;
71648;SDS011;59492;45.638;11.714;2023-02-01T05:01:42;19.00;;;15.00;;
71648;SDS011;59492;45.638;11.714;2023-02-01T05:04:08;17.10;;;15.30;;
71648;SDS011;59492;45.638;11.714;2023-02-01T05:06:33;18.30;;;15.50;;
71648;SDS011;59492;45.638;11.714;2023-02-01T05:09:02;19.00;;;16.20;;
71648;SDS011;59492;45.638;11.714;2023-02-01T05:11:37;18.50;;;16.10;;
71648;SDS011;59492;45.638;11.714;2023-02-01T05:14:22;20.60;;;16.80;;
71648;SDS011;59492;45.638;11.714;2023-02-01T05:16:47;21.20;;;16.90;;
71648;SDS011;59492;45.638;11.714;2023-02-01T05:19:13;19.20;;;16.60;;
71648;SDS011;59492;45.638;11.714;2023-02-01T05:21:39;17.70;;;15.80;;
71648;SDS011;59492;45.638;11.714;2023-02-01T05:24:04;18.50;;;16.20;;
71648;SDS011;59492;45.638;11.714;2023-02-01T05:26:45;18.60;;;16.60;;
71648;SDS011;59492;45.638;11.714;2023-02-01T05:29:15;18.40;;;16.40;;
71648;SDS011;59492;45.638;11.714;2023-02-01T05:31:43;20.40;;;16.70;;
71648;SDS011;59492;45.638;11.714;2023-02-01T05:34:10;20.10;;;16.90;;
71648;SDS011;59492;45.638;11.714;2023-02-01T05:36:36;17.60;;;15.60;;
71648;SDS011;59492;45.638;11.714;2023-02-01T05:39:07;18.80;;;15.70;;
71648;SDS011;59492;45.638;11.714;2023-02-01T05:41:33;19.90;;;16.40;;
71648;SDS011;59492;45.638;11.714;2023-02-01T05:44:01;21.70;;;16.80;;
71648;SDS011;59492;45.638;11.714;2023-02-01T05:46:28;20.40;;;16.90;;
71648;SDS011;59492;45.638;11.714;2023-02-01T05:48:53;18.50;;;15.70;;
71648;SDS011;59492;45.638;11.714;2023-02-01T05:51:19;18.80;;;16.20;;
71648;SDS011;59492;45.638;11.714;2023-02-01T05:53:45;19.10;;;16.00;;
71648;SDS011;59492;45.638;11.714;2023-02-01T05:56:10;19.30;;;16.50;;
71648;SDS011;59492;45.638;11.714;2023-02-01T05:58:36;18.40;;;16.20;;
71648;SDS011;59492;45.638;11.714;2023-02-01T06:01:12;18.20;;;15.90;;
71648;SDS011;59492;45.638;11.714;2023-02-01T06:03:38;19.90;;;16.70;;
71648;SDS011;59492;45.638;11.714;2023-02-01T06:06:07;19.30;;;15.80;;
71648;SDS011;59492;45.638;11.714;2023-02-01T06:08:35;19.60;;;16.40;;
71648;SDS011;59492;45.638;11.714;2023-02-01T06:11:04;20.10;;;16.20;;
71648;SDS011;59492;45.638;11.714;2023-02-01T06:13:30;17.50;;;15.50;;
71648;SDS011;59492;45.638;11.714;2023-02-01T06:15:56;19.60;;;16.10;;
71648;SDS011;59492;45.638;11.714;2023-02-01T06:18:24;19.30;;;16.20;;
71648;SDS011;59492;45.638;11.714;2023-02-01T06:20:54;19.30;;;16.20;;
71648;SDS011;59492;45.638;11.714;2023-02-01T06:23:30;18.60;;;15.60;;
71648;SDS011;59492;45.638;11.714;2023-02-01T06:26:03;16.80;;;14.10;;
71648;SDS011;59492;45.638;11.714;2023-02-01T06:28:31;17.10;;;14.10;;
71648;SDS011;59492;45.638;11.714;2023-02-01T06:30:57;16.60;;;14.30;;
71648;SDS011;59492;45.638;11.714;2023-02-01T06:33:30;18.30;;;15.10;;
71648;SDS011;59492;45.638;11.714;2023-02-01T06:35:56;17.60;;;15.80;;
71648;SDS011;59492;45.638;11.714;2023-02-01T06:38:24;19.00;;;15.50;;
71648;SDS011;59492;45.638;11.714;2023-02-01T06:40:53;17.80;;;14.80;;
71648;SDS011;59492;45.638;11.714;2023-02-01T06:43:30;18.20;;;15.20;;
71648;SDS011;59492;45.638;11.714;2023-02-01T06:46:08;19.40;;;15.00;;
71648;SDS011;59492;45.638;11.714;2023-02-01T06:48:39;17.90;;;15.30;;
71648;SDS011;59492;45.638;11.714;2023-02-01T06:51:05;18.80;;;15.60;;
71648;SDS011;59492;45.638;11.714;2023-02-01T06:53:32;17.50;;;14.40;;
71648;SDS011;59492;45.638;11.714;2023-02-01T06:56:02;19.80;;;15.80;;
71648;SDS011;59492;45.638;11.714;2023-02-01T06:58:29;17.80;;;14.80;;
71648;SDS011;59492;45.638;11.714;2023-02-01T07:00:56;18.10;;;14.70;;
71648;SDS011;59492;45.638;11.714;2023-02-01T07:03:22;16.50;;;14.60;;
71648;SDS011;59492;45.638;11.714;2023-02-01T07:05:56;17.50;;;14.10;;
71648;SDS011;59492;45.638;11.714;2023-02-01T07:08:30;17.90;;;14.30;;
71648;SDS011;59492;45.638;11.714;2023-02-01T07:11:01;17.30;;;14.70;;
71648;SDS011;59492;45.638;11.714;2023-02-01T07:13:31;16.90;;;15.00;;
71648;SDS011;59492;45.638;11.714;2023-02-01T07:15:59;19.60;;;14.80;;
71648;SDS011;59492;45.638;11.714;2023-02-01T07:18:26;17.70;;;15.50;;
71648;SDS011;59492;45.638;11.714;2023-02-01T07:20:54;17.30;;;14.90;;
71648;SDS011;59492;45.638;11.714;2023-02-01T07:23:20;18.40;;;15.30;;
71648;SDS011;59492;45.638;11.714;2023-02-01T07:25:47;18.30;;;15.80;;
71648;SDS011;59492;45.638;11.714;2023-02-01T07:28:12;15.50;;;13.50;;
71648;SDS011;59492;45.638;11.714;2023-02-01T07:30:41;18.60;;;14.30;;
71648;SDS011;59492;45.638;11.714;2023-02-01T07:33:07;19.40;;;14.80;;
71648;SDS011;59492;45.638;11.714;2023-02-01T07:35:33;18.10;;;15.10;;
71648;SDS011;59492;45.638;11.714;2023-02-01T07:37:58;23.20;;;15.70;;
71648;SDS011;59492;45.638;11.714;2023-02-01T07:40:25;20.30;;;16.40;;
71648;SDS011;59492;45.638;11.714;2023-02-01T07:42:55;19.20;;;15.80;;
71648;SDS011;59492;45.638;11.714;2023-02-01T07:45:22;23.40;;;15.90;;
71648;SDS011;59492;45.638;11.714;2023-02-01T07:47:51;22.80;;;16.80;;
71648;SDS011;59492;45.638;11.714;2023-02-01T07:50:18;18.90;;;15.50;;
71648;SDS011;59492;45.638;11.714;2023-02-01T07:52:44;22.60;;;16.50;;
71648;SDS011;59492;45.638;11.714;2023-02-01T07:55:09;19.40;;;15.80;;
71648;SDS011;59492;45.638;11.714;2023-02-01T07:57:35;20.50;;;16.10;;
71648;SDS011;59492;45.638;11.714;2023-02-01T08:00:01;19.90;;;16.10;;
71648;SDS011;59492;45.638;11.714;2023-02-01T08:02:48;18.00;;;15.80;;
71648;SDS011;59492;45.638;11.714;2023-02-01T08:05:14;18.80;;;15.60;;
71648;SDS011;59492;45.638;11.714;2023-02-01T08:07:40;21.50;;;16.30;;
71648;SDS011;59492;45.638;11.714;2023-02-01T08:10:06;18.70;;;15.00;;
71648;SDS011;59492;45.638;11.714;2023-02-01T08:12:36;18.70;;;15.80;;
71648;SDS011;59492;45.638;11.714;2023-02-01T08:15:02;20.00;;;16.90;;
71648;SDS011;59492;45.638;11.714;2023-02-01T08:17:32;20.20;;;16.50;;
71648;SDS011;59492;45.638;11.714;2023-02-01T08:19:57;20.20;;;15.60;;
71648;SDS011;59492;45.638;11.714;2023-02-01T08:22:23;19.30;;;15.50;;
71648;SDS011;59492;45.638;11.714;2023-02-01T08:24:50;19.20;;;15.20;;
71648;SDS011;59492;45.638;11.714;2023-02-01T08:27:26;19.70;;;14.80;;
71648;SDS011;59492;45.638;11.714;2023-02-01T08:29:52;18.70;;;15.60;;
71648;SDS011;59492;45.638;11.714;2023-02-01T08:32:19;19.30;;;15.00;;
71648;SDS011;59492;45.638;11.714;2023-02-01T08:34:44;18.90;;;15.20;;
71648;SDS011;59492;45.638;11.714;2023-02-01T08:37:10;20.00;;;15.20;;
71648;SDS011;59492;45.638;11.714;2023-02-01T08:39:36;21.60;;;15.50;;
71648;SDS011;59492;45.638;11.714;2023-02-01T08:42:04;18.30;;;15.30;;
71648;SDS011;59492;45.638;11.714;2023-02-01T08:44:49;16.80;;;15.00;;
71648;SDS011;59492;45.638;11.714;2023-02-01T08:47:16;19.30;;;15.40;;
71648;SDS011;59492;45.638;11.714;2023-02-01T08:49:42;18.90;;;15.20;;
71648;SDS011;59492;45.638;11.714;2023-02-01T08:52:07;22.00;;;16.10;;
71648;SDS011;59492;45.638;11.714;2023-02-01T08:54:33;19.00;;;15.00;;
71648;SDS011;59492;45.638;11.714;2023-02-01T08:56:59;18.00;;;15.00;;
71648;SDS011;59492;45.638;11.714;2023-02-01T08:59:24;17.10;;;15.30;;
71648;SDS011;59492;45.638;11.714;2023-02-01T09:01:51;16.50;;;14.60;;
71648;SDS011;59492;45.638;11.714;2023-02-01T09:04:20;17.50;;;14.60;;
71648;SDS011;59492;45.638;11.714;2023-02-01T09:06:46;16.90;;;14.80;;
71648;SDS011;59492;45.638;11.714;2023-02-01T09:09:11;16.60;;;14.80;;
71648;SDS011;59492;45.638;11.714;2023-02-01T09:11:37;17.40;;;14.90;;
71648;SDS011;59492;45.638;11.714;2023-02-01T09:14:03;17.80;;;14.20;;
71648;SDS011;59492;45.638;11.714;2023-02-01T09:16:28;18.10;;;15.30;;
71648;SDS011;59492;45.638;11.714;2023-02-01T09:18:54;19.40;;;14.60;;
71648;SDS011;59492;45.638;11.714;2023-02-01T09:21:20;17.60;;;14.30;;
71648;SDS011;59492;45.638;11.714;2023-02-01T09:23:45;18.70;;;14.50;;
71648;SDS011;59492;45.638;11.714;2023-02-01T09:26:13;17.20;;;14.30;;
71648;SDS011;59492;45.638;11.714;2023-02-01T09:28:39;15.50;;;13.90;;
71648;SDS011;59492;45.638;11.714;2023-02-01T09:31:05;16.40;;;14.00;;
71648;SDS011;59492;45.638;11.714;2023-02-01T09:33:31;16.50;;;14.40;;
71648;SDS011;59492;45.638;11.714;2023-02-01T09:36:00;17.80;;;14.20;;
71648;SDS011;59492;45.638;11.714;2023-02-01T09:38:28;20.50;;;14.40;;
71648;SDS011;59492;45.638;11.714;2023-02-01T09:41:07;18.90;;;14.50;;
71648;SDS011;59492;45.638;11.714;2023-02-01T09:43:56;17.60;;;13.80;;
71648;SDS011;59492;45.638;11.714;2023-02-01T09:46:32;18.80;;;14.30;;
71648;SDS011;59492;45.638;11.714;2023-02-01T09:49:04;18.50;;;14.60;;
71648;SDS011;59492;45.638;11.714;2023-02-01T09:51:42;17.90;;;14.60;;
71648;SDS011;59492;45.638;11.714;2023-02-01T09:54:13;17.30;;;14.40;;
71648;SDS011;59492;45.638;11.714;2023-02-01T09:59:16;16.40;;;13.40;;
71648;SDS011;59492;45.638;11.714;2023-02-01T10:01:51;16.50;;;14.00;;
71648;SDS011;59492;45.638;11.714;2023-02-01T10:04:17;17.70;;;14.40;;
71648;SDS011;59492;45.638;11.714;2023-02-01T10:09:41;16.20;;;14.10;;
71648;SDS011;59492;45.638;11.714;2023-02-01T10:12:25;16.90;;;13.70;;
71648;SDS011;59492;45.638;11.714;2023-02-01T10:23:04;18.40;;;13.80;;
71648;SDS011;59492;45.638;11.714;2023-02-01T10:25:54;16.70;;;13.40;;
71648;SDS011;59492;45.638;11.714;2023-02-01T10:28:21;15.30;;;13.40;;
71648;SDS011;59492;45.638;11.714;2023-02-01T10:30:49;14.60;;;13.00;;
71648;SDS011;59492;45.638;11.714;2023-02-01T10:36:00;15.90;;;13.10;;
71648;SDS011;59492;45.638;11.714;2023-02-01T10:38:33;15.70;;;12.60;;
71648;SDS011;59492;45.638;11.714;2023-02-01T10:41:01;16.40;;;13.20;;
71648;SDS011;59492;45.638;11.714;2023-02-01T10:43:29;16.60;;;12.50;;
71648;SDS011;59492;45.638;11.714;2023-02-01T10:45:55;15.80;;;13.80;;
71648;SDS011;59492;45.638;11.714;2023-02-01T10:48:22;15.90;;;13.00;;
71648;SDS011;59492;45.638;11.714;2023-02-01T10:50:58;15.20;;;13.60;;
71648;SDS011;59492;45.638;11.714;2023-02-01T10:54:08;17.20;;;13.50;;
71648;SDS011;59492;45.638;11.714;2023-02-01T10:56:43;17.80;;;13.80;;
71648;SDS011;59492;45.638;11.714;2023-02-01T10:59:17;17.00;;;13.70;;
71648;SDS011;59492;45.638;11.714;2023-02-01T11:01:46;17.10;;;13.30;;
71648;SDS011;59492;45.638;11.714;2023-02-01T11:04:16;16.20;;;13.00;;
71648;SDS011;59492;45.638;11.714;2023-02-01T11:06:45;16.30;;;13.40;;
71648;SDS011;59492;45.638;11.714;2023-02-01T11:09:18;16.10;;;13.90;;
71648;SDS011;59492;45.638;11.714;2023-02-01T11:14:16;15.70;;;13.80;;
71648;SDS011;59492;45.638;11.714;2023-02-01T11:16:57;16.50;;;13.50;;
71648;SDS011;59492;45.638;11.714;2023-02-01T11:19:28;17.90;;;13.50;;
71648;SDS011;59492;45.638;11.714;2023-02-01T11:21:54;15.50;;;13.70;;
71648;SDS011;59492;45.638;11.714;2023-02-01T11:24:29;16.40;;;13.50;;
71648;SDS011;59492;45.638;11.714;2023-02-01T11:27:12;16.70;;;13.20;;
71648;SDS011;59492;45.638;11.714;2023-02-01T11:29:42;16.30;;;12.90;;
71648;SDS011;59492;45.638;11.714;2023-02-01T11:32:12;16.50;;;13.10;;
71648;SDS011;59492;45.638;11.714;2023-02-01T11:34:41;16.80;;;13.30;;
71648;SDS011;59492;45.638;11.714;2023-02-01T11:37:40;19.10;;;14.60;;
71648;SDS011;59492;45.638;11.714;2023-02-01T11:45:28;21.70;;;15.60;;
71648;SDS011;59492;45.638;11.714;2023-02-01T11:47:56;22.70;;;15.20;;
71648;SDS011;59492;45.638;11.714;2023-02-01T11:53:36;19.00;;;16.30;;
71648;SDS011;59492;45.638;11.714;2023-02-01T11:59:13;19.90;;;16.20;;
71648;SDS011;59492;45.638;11.714;2023-02-01T12:01:58;23.30;;;17.10;;
71648;SDS011;59492;45.638;11.714;2023-02-01T12:13:27;22.50;;;16.10;;
71648;SDS011;59492;45.638;11.714;2023-02-01T12:16:09;22.60;;;17.10;;
71648;SDS011;59492;45.638;11.714;2023-02-01T12:18:46;22.60;;;17.30;;
71648;SDS011;59492;45.638;11.714;2023-02-01T12:24:15;24.90;;;17.50;;
71648;SDS011;59492;45.638;11.714;2023-02-01T12:29:33;23.50;;;16.90;;
71648;SDS011;59492;45.638;11.714;2023-02-01T12:42:50;21.80;;;18.10;;
71648;SDS011;59492;45.638;11.714;2023-02-01T12:45:43;24.90;;;20.20;;
71648;SDS011;59492;45.638;11.714;2023-02-01T12:48:25;20.80;;;18.00;;
71648;SDS011;59492;45.638;11.714;2023-02-01T12:51:06;25.20;;;18.30;;
71648;SDS011;59492;45.638;11.714;2023-02-01T12:53:53;21.20;;;17.60;;
71648;SDS011;59492;45.638;11.714;2023-02-01T12:56:24;22.40;;;17.40;;
71648;SDS011;59492;45.638;11.714;2023-02-01T12:58:52;21.60;;;17.80;;
71648;SDS011;59492;45.638;11.714;2023-02-01T13:01:40;22.60;;;17.70;;
71648;SDS011;59492;45.638;11.714;2023-02-01T13:04:30;21.50;;;17.00;;
71648;SDS011;59492;45.638;11.714;2023-02-01T13:07:01;21.60;;;18.20;;
71648;SDS011;59492;45.638;11.714;2023-02-01T13:09:41;20.30;;;16.70;;
71648;SDS011;59492;45.638;11.714;2023-02-01T13:12:18;20.90;;;16.10;;
71648;SDS011;59492;45.638;11.714;2023-02-01T13:14:54;20.50;;;15.90;;
71648;SDS011;59492;45.638;11.714;2023-02-01T13:17:32;19.40;;;15.70;;
71648;SDS011;59492;45.638;11.714;2023-02-01T13:20:06;21.10;;;15.90;;
71648;SDS011;59492;45.638;11.714;2023-02-01T13:22:43;21.10;;;16.80;;
71648;SDS011;59492;45.638;11.714;2023-02-01T13:25:17;21.20;;;17.00;;
71648;SDS011;59492;45.638;11.714;2023-02-01T13:27:55;20.60;;;16.20;;
71648;SDS011;59492;45.638;11.714;2023-02-01T13:30:27;20.70;;;16.20;;
71648;SDS011;59492;45.638;11.714;2023-02-01T13:35:44;23.90;;;15.70;;
71648;SDS011;59492;45.638;11.714;2023-02-01T13:38:28;19.90;;;15.40;;
71648;SDS011;59492;45.638;11.714;2023-02-01T13:42:17;17.70;;;15.40;;
71648;SDS011;59492;45.638;11.714;2023-02-01T13:44:46;20.00;;;15.50;;
71648;SDS011;59492;45.638;11.714;2023-02-01T13:47:26;19.80;;;15.10;;
71648;SDS011;59492;45.638;11.714;2023-02-01T13:50:26;20.50;;;15.70;;
71648;SDS011;59492;45.638;11.714;2023-02-01T13:52:53;17.90;;;14.00;;
71648;SDS011;59492;45.638;11.714;2023-02-01T13:57:44;20.20;;;14.80;;
71648;SDS011;59492;45.638;11.714;2023-02-01T14:00:31;16.60;;;14.10;;
71648;SDS011;59492;45.638;11.714;2023-02-01T14:13:19;22.20;;;15.60;;
71648;SDS011;59492;45.638;11.714;2023-02-01T14:23:55;19.40;;;15.10;;
71648;SDS011;59492;45.638;11.714;2023-02-01T14:26:24;18.30;;;13.90;;
71648;SDS011;59492;45.638;11.714;2023-02-01T14:28:56;19.40;;;14.30;;
71648;SDS011;59492;45.638;11.714;2023-02-01T14:34:19;19.60;;;14.10;;
71648;SDS011;59492;45.638;11.714;2023-02-01T14:47:50;17.40;;;12.80;;
71648;SDS011;59492;45.638;11.714;2023-02-01T14:50:19;16.60;;;12.50;;
71648;SDS011;59492;45.638;11.714;2023-02-01T14:52:47;16.10;;;13.00;;
71648;SDS011;59492;45.638;11.714;2023-02-01T14:55:31;17.10;;;13.60;;
71648;SDS011;59492;45.638;11.714;2023-02-01T15:01:25;15.80;;;12.20;;
71648;SDS011;59492;45.638;11.714;2023-02-01T15:03:55;17.10;;;12.10;;
71648;SDS011;59492;45.638;11.714;2023-02-01T15:06:28;16.10;;;11.80;;
71648;SDS011;59492;45.638;11.714;2023-02-01T15:09:17;16.00;;;12.20;;
71648;SDS011;59492;45.638;11.714;2023-02-01T15:11:55;14.20;;;11.90;;
71648;SDS011;59492;45.638;11.714;2023-02-01T15:14:32;15.20;;;11.60;;
71648;SDS011;59492;45.638;11.714;2023-02-01T15:17:03;14.30;;;10.90;;
71648;SDS011;59492;45.638;11.714;2023-02-01T15:19:52;13.70;;;11.40;;
71648;SDS011;59492;45.638;11.714;2023-02-01T15:22:23;13.20;;;11.10;;
71648;SDS011;59492;45.638;11.714;2023-02-01T15:24:52;14.40;;;11.30;;
71648;SDS011;59492;45.638;11.714;2023-02-01T15:27:19;14.50;;;11.90;;
71648;SDS011;59492;45.638;11.714;2023-02-01T15:29:46;16.10;;;11.50;;
71648;SDS011;59492;45.638;11.714;2023-02-01T15:32:30;15.10;;;11.30;;
71648;SDS011;59492;45.638;11.714;2023-02-01T15:35:03;13.50;;;10.60;;
71648;SDS011;59492;45.638;11.714;2023-02-01T15:37:30;18.90;;;12.00;;
71648;SDS011;59492;45.638;11.714;2023-02-01T15:40:04;16.90;;;12.10;;
71648;SDS011;59492;45.638;11.714;2023-02-01T15:42:30;15.60;;;12.30;;
71648;SDS011;59492;45.638;11.714;2023-02-01T15:44:56;13.80;;;11.50;;
71648;SDS011;59492;45.638;11.714;2023-02-01T15:47:25;16.10;;;12.20;;
71648;SDS011;59492;45.638;11.714;2023-02-01T15:49:57;12.40;;;10.80;;
71648;SDS011;59492;45.638;11.714;2023-02-01T15:55:05;14.40;;;11.20;;
71648;SDS011;59492;45.638;11.714;2023-02-01T15:57:52;15.20;;;11.50;;
71648;SDS011;59492;45.638;11.714;2023-02-01T16:02:55;13.80;;;10.50;;
71648;SDS011;59492;45.638;11.714;2023-02-01T16:08:10;14.80;;;11.60;;
71648;SDS011;59492;45.638;11.714;2023-02-01T16:10:45;16.20;;;12.60;;
71648;SDS011;59492;45.638;11.714;2023-02-01T16:13:13;13.50;;;11.80;;
71648;SDS011;59492;45.638;11.714;2023-02-01T16:15:40;14.90;;;11.60;;
71648;SDS011;59492;45.638;11.714;2023-02-01T16:18:07;14.50;;;11.30;;
71648;SDS011;59492;45.638;11.714;2023-02-01T16:20:38;16.40;;;11.80;;
71648;SDS011;59492;45.638;11.714;2023-02-01T16:23:06;13.90;;;11.70;;
71648;SDS011;59492;45.638;11.714;2023-02-01T16:25:33;14.30;;;11.90;;
71648;SDS011;59492;45.638;11.714;2023-02-01T16:27:59;15.00;;;11.90;;
71648;SDS011;59492;45.638;11.714;2023-02-01T16:30:25;13.20;;;11.20;;
71648;SDS011;59492;45.638;11.714;2023-02-01T16:32:52;15.90;;;11.70;;
71648;SDS011;59492;45.638;11.714;2023-02-01T16:35:21;15.20;;;12.30;;
71648;SDS011;59492;45.638;11.714;2023-02-01T16:37:50;11.40;;;9.50;;
71648;SDS011;59492;45.638;11.714;2023-02-01T16:40:16;12.40;;;9.60;;
71648;SDS011;59492;45.638;11.714;2023-02-01T16:42:44;13.90;;;10.40;;